createdAt,value
2023-01-04T00:01:01.210Z,9.56
2023-01-04T00:05:06.587Z,9.63
2023-01-04T00:09:09.951Z,9.74
2023-01-04T00:13:13.432Z,9.75
2023-01-04T00:17:16.818Z,9.81
2023-01-04T00:21:23.115Z,9.92
2023-01-04T00:25:26.630Z,9.90
2023-01-04T00:29:30.043Z,9.89
2023-01-04T00:33:33.845Z,9.94
2023-01-04T00:37:38.712Z,9.83
2023-01-04T00:42:00.910Z,9.72
2023-01-04T00:46:07.063Z,9.51
2023-01-04T00:50:10.879Z,9.44
2023-01-04T00:54:17.103Z,9.35
2023-01-04T00:58:20.530Z,9.48
2023-01-04T01:02:24.281Z,9.54
2023-01-04T01:06:29.040Z,9.49
2023-01-04T01:10:35.828Z,9.59
2023-01-04T01:14:39.331Z,9.52
2023-01-04T01:18:45.237Z,9.46
2023-01-04T01:22:48.641Z,9.43
2023-01-04T01:26:53.616Z,9.50
2023-01-04T01:31:02.450Z,9.59
2023-01-04T01:35:10.475Z,9.48
2023-01-04T01:39:13.615Z,9.54
2023-01-04T01:43:23.483Z,9.48
2023-01-04T01:47:29.472Z,9.49
2023-01-04T01:51:33.539Z,9.47
2023-01-04T01:56:06.934Z,9.37
2023-01-04T02:00:14.974Z,9.36
2023-01-04T02:04:18.790Z,9.35
2023-01-04T02:08:25.515Z,9.44
2023-01-04T02:12:28.984Z,9.50
2023-01-04T02:16:44.527Z,9.50
2023-01-04T02:20:53.536Z,9.57
2023-01-04T02:25:23.248Z,9.62
2023-01-04T02:29:52.996Z,9.82
2023-01-04T02:34:05.992Z,9.84
2023-01-04T02:38:16.421Z,9.95
2023-01-04T02:42:49.214Z,10.02
2023-01-04T02:46:57.197Z,10.04
2023-01-04T02:51:01.224Z,10.06
2023-01-04T02:55:08.087Z,10.06
2023-01-04T02:59:31.262Z,10.14
2023-01-04T03:04:00.282Z,10.11
2023-01-04T03:08:13.328Z,10.15
2023-01-04T03:12:35.958Z,10.29
2023-01-04T03:16:43.492Z,10.28
2023-01-04T03:20:49.776Z,10.38
2023-01-04T03:25:13.554Z,10.30
2023-01-04T03:29:38.058Z,10.31
2023-01-04T03:33:58.570Z,10.27
2023-01-04T03:38:27.545Z,10.21
2023-01-04T03:42:59.314Z,10.13
2023-01-04T03:47:25.465Z,9.98
2023-01-04T03:51:33.122Z,10.10
2023-01-04T03:55:39.036Z,10.06
2023-01-04T03:59:49.363Z,10.37
2023-01-04T04:04:10.191Z,10.34
2023-01-04T04:08:29.067Z,10.31
2023-01-04T04:12:32.195Z,10.25
2023-01-04T04:16:36.658Z,10.28
2023-01-04T04:20:46.924Z,10.19
2023-01-04T04:24:50.306Z,10.15
2023-01-04T04:28:53.720Z,10.15
2023-01-04T04:32:58.848Z,10.12
2023-01-04T04:37:02.473Z,10.16
2023-01-04T04:41:27.255Z,10.25
2023-01-04T04:45:30.750Z,10.31
2023-01-04T04:49:35.561Z,10.44
2023-01-04T04:53:39.011Z,10.39
2023-01-04T04:57:42.095Z,10.47
2023-01-04T05:01:45.279Z,10.54
2023-01-04T05:05:49.767Z,10.54
2023-01-04T05:09:53.126Z,10.53
2023-01-04T05:13:56.261Z,10.58
2023-01-04T05:17:59.290Z,10.59
2023-01-04T05:22:04.885Z,10.59
2023-01-04T05:26:08.198Z,10.62
2023-01-04T05:30:31.363Z,10.68
2023-01-04T05:34:34.498Z,10.67
2023-01-04T05:38:38.949Z,10.76
2023-01-04T05:42:41.997Z,10.86
2023-01-04T05:46:45.368Z,10.92
2023-01-04T05:50:49.110Z,10.90
2023-01-04T05:54:53.533Z,10.93
2023-01-04T05:59:08.014Z,11.06
2023-01-04T06:03:11.657Z,11.03
2023-01-04T06:07:15.899Z,11.11
2023-01-04T06:11:27.184Z,11.05
2023-01-04T06:15:30.979Z,11.08
2023-01-04T06:19:34.790Z,11.12
2023-01-04T06:23:37.864Z,11.14
2023-01-04T06:27:42.359Z,11.11
2023-01-04T06:31:45.862Z,11.17
2023-01-04T06:35:55.076Z,11.18
2023-01-04T06:39:58.405Z,11.22
2023-01-04T06:44:03.749Z,11.20
2023-01-04T06:48:09.449Z,11.16
2023-01-04T06:52:13.039Z,11.17
2023-01-04T06:56:16.827Z,11.13
2023-01-04T07:00:22.085Z,11.17
2023-01-04T07:04:26.162Z,11.21
2023-01-04T07:08:31.007Z,11.26
2023-01-04T07:12:34.611Z,11.20
2023-01-04T07:16:39.571Z,11.23
2023-01-04T07:20:43.001Z,11.21
2023-01-04T07:24:46.445Z,11.27
2023-01-04T07:29:07.905Z,11.29
2023-01-04T07:33:12.760Z,11.25
2023-01-04T07:37:16.864Z,11.23
2023-01-04T07:41:20.352Z,11.13
2023-01-04T07:45:23.912Z,11.16
2023-01-04T07:49:28.857Z,11.19
2023-01-04T07:53:34.280Z,11.25
2023-01-04T07:57:37.729Z,11.29
2023-01-04T08:01:42.008Z,11.34
2023-01-04T08:05:46.921Z,11.34
2023-01-04T08:09:50.384Z,11.33
2023-01-04T08:13:53.895Z,11.35
2023-01-04T08:17:57.882Z,11.27
2023-01-04T08:22:02.804Z,11.14
2023-01-04T08:26:07.423Z,11.01
2023-01-04T08:30:11.544Z,10.88
2023-01-04T08:34:14.943Z,10.84
2023-01-04T08:38:58.021Z,10.79
2023-01-04T08:42:43.197Z,10.83
2023-01-04T08:46:47.232Z,10.99
2023-01-04T08:50:50.882Z,11.13
2023-01-04T08:54:55.929Z,11.28
2023-01-04T08:58:59.610Z,11.41
2023-01-04T09:03:03.305Z,11.52
2023-01-04T09:07:06.971Z,11.72
2023-01-04T09:11:13.683Z,11.81
2023-01-04T09:15:17.760Z,11.87
2023-01-04T09:19:22.429Z,11.94
2023-01-04T09:23:25.933Z,12.01
2023-01-04T09:27:32.540Z,12.04
2023-01-04T09:31:36.028Z,12.09
2023-01-04T09:35:39.645Z,12.11
2023-01-04T09:39:43.225Z,12.14
2023-01-04T09:43:50.427Z,11.92
2023-01-04T09:47:58.859Z,11.77
2023-01-04T09:52:05.863Z,11.87
2023-01-04T09:56:12.255Z,11.89
2023-01-04T10:00:25.662Z,11.76
2023-01-04T10:04:41.115Z,11.59
2023-01-04T10:08:45.401Z,11.58
2023-01-04T10:13:23.356Z,11.61
2023-01-04T10:22:15.139Z,11.57
2023-01-04T10:26:25.594Z,11.66
2023-01-04T10:30:37.838Z,11.63
2023-01-04T10:34:47.384Z,11.66
2023-01-04T10:38:56.825Z,11.68
2023-01-04T10:43:04.468Z,11.75
2023-01-04T10:47:12.595Z,11.74
2023-01-04T10:51:22.982Z,11.69
2023-01-04T10:55:31.158Z,11.69
2023-01-04T10:59:44.073Z,11.64
2023-01-04T11:03:52.995Z,11.61
2023-01-04T11:08:02.208Z,11.63
2023-01-04T11:12:10.736Z,11.62
2023-01-04T11:16:14.451Z,11.59
2023-01-04T11:20:17.787Z,11.55
2023-01-04T11:24:31.918Z,11.54
2023-01-04T11:28:41.117Z,11.55
2023-01-04T11:32:52.199Z,11.58
2023-01-04T11:36:55.280Z,11.63
2023-01-04T11:41:02.747Z,11.62
2023-01-04T11:45:06.854Z,11.63
2023-01-04T11:49:20.230Z,11.67
2023-01-04T11:53:29.098Z,11.69
2023-01-04T11:57:33.614Z,11.70
2023-01-04T12:01:38.588Z,11.78
2023-01-04T12:05:41.928Z,11.76
2023-01-04T12:09:45.205Z,11.73
2023-01-04T12:13:49.714Z,11.66
2023-01-04T12:17:57.960Z,11.66
2023-01-04T12:22:03.602Z,11.63
2023-01-04T12:26:08.832Z,11.60
2023-01-04T12:30:37.625Z,11.68
2023-01-04T12:34:43.206Z,11.69
2023-01-04T12:39:29.476Z,11.76
2023-01-04T12:43:44.721Z,11.79
2023-01-04T12:48:10.689Z,11.83
2023-01-04T12:53:10.030Z,11.86
2023-01-04T12:57:24.973Z,11.92
2023-01-04T13:01:29.325Z,11.94
2023-01-04T13:10:02.514Z,11.96
2023-01-04T13:14:11.021Z,12.04
2023-01-04T13:18:34.801Z,12.08
2023-01-04T13:22:39.871Z,12.15
2023-01-04T13:26:46.113Z,12.20
2023-01-04T13:30:49.463Z,12.25
2023-01-04T13:34:55.806Z,12.15
2023-01-04T13:39:00.344Z,12.11
2023-01-04T13:43:22.486Z,12.10
2023-01-04T13:47:26.054Z,12.13
2023-01-04T13:51:36.136Z,12.12
2023-01-04T13:55:41.281Z,12.13
2023-01-04T13:59:44.532Z,12.13
2023-01-04T14:03:50.546Z,12.16
2023-01-04T14:07:53.662Z,12.17
2023-01-04T14:12:07.434Z,12.20
2023-01-04T14:16:14.524Z,12.24
2023-01-04T14:20:35.007Z,12.33
2023-01-04T14:29:22.905Z,12.38
2023-01-04T14:33:31.740Z,12.25
2023-01-04T14:37:35.928Z,12.23
2023-01-04T14:41:41.652Z,12.18
2023-01-04T14:45:46.374Z,12.26
2023-01-04T14:49:49.681Z,12.33
2023-01-04T14:53:52.860Z,12.37
2023-01-04T14:57:55.958Z,12.44
2023-01-04T15:02:00.632Z,12.41
2023-01-04T15:06:04.554Z,12.50
2023-01-04T15:10:22.275Z,12.60
2023-01-04T15:14:25.665Z,12.71
2023-01-04T15:18:30.174Z,12.76
2023-01-04T15:22:33.316Z,12.74
2023-01-04T15:26:36.425Z,12.84
2023-01-04T15:30:42.490Z,12.85
2023-01-04T15:34:49.654Z,12.85
2023-01-04T15:38:55.314Z,12.84
2023-01-04T15:43:01.283Z,12.83
2023-01-04T15:47:04.704Z,12.76
2023-01-04T15:51:10.450Z,12.71
2023-01-04T15:55:14.720Z,12.47
2023-01-04T15:59:18.492Z,12.30
2023-01-04T16:03:21.581Z,12.21
2023-01-04T16:07:28.606Z,12.22
2023-01-04T16:11:36.420Z,12.23
2023-01-04T16:15:39.614Z,12.24
2023-01-04T16:19:42.709Z,12.24
2023-01-04T16:23:51.038Z,12.30
2023-01-04T16:27:54.110Z,12.38
2023-01-04T16:31:58.981Z,12.47
2023-01-04T16:36:04.324Z,12.46
2023-01-04T16:40:10.288Z,12.43
2023-01-04T16:44:14.560Z,12.36
2023-01-04T16:48:18.786Z,12.32
2023-01-04T16:52:22.069Z,12.29
2023-01-04T16:56:26.638Z,12.34
2023-01-04T17:00:29.747Z,12.31
2023-01-04T17:04:32.863Z,12.39
2023-01-04T17:08:36.053Z,12.37
2023-01-04T17:12:49.058Z,12.38
2023-01-04T17:16:53.088Z,12.47
2023-01-04T17:21:16.912Z,12.46
2023-01-04T17:25:21.567Z,12.51
2023-01-04T17:29:26.048Z,12.54
2023-01-04T17:33:29.182Z,12.50
2023-01-04T17:37:32.306Z,12.48
2023-01-04T17:41:36.195Z,12.45
2023-01-04T17:45:40.668Z,12.40
2023-01-04T17:49:43.850Z,12.49
2023-01-04T17:53:47.848Z,12.58
2023-01-04T17:57:50.977Z,12.67
2023-01-04T18:01:55.543Z,12.57
2023-01-04T18:06:24.452Z,12.59
2023-01-04T18:10:41.318Z,12.60
2023-01-04T18:14:44.929Z,12.54
2023-01-04T18:18:49.550Z,12.56
2023-01-04T18:22:52.666Z,12.56
2023-01-04T18:27:20.873Z,12.56
2023-01-04T18:31:20.670Z,12.60
2023-01-04T18:35:25.218Z,12.66
2023-01-04T18:39:28.319Z,12.71
2023-01-04T18:43:31.539Z,12.70
2023-01-04T18:47:34.710Z,12.67
2023-01-04T18:51:39.193Z,12.68
2023-01-04T18:55:42.632Z,12.58
2023-01-04T18:59:49.998Z,12.60
2023-01-04T19:03:53.195Z,12.56
2023-01-04T19:07:57.744Z,12.59
2023-01-04T19:12:00.954Z,12.58
2023-01-04T19:16:04.095Z,12.55
2023-01-04T19:20:08.196Z,12.48
2023-01-04T19:24:12.699Z,12.44
2023-01-04T19:28:15.842Z,12.47
2023-01-04T19:32:21.163Z,12.58
2023-01-04T19:36:24.257Z,12.60
2023-01-04T19:40:28.728Z,12.66
2023-01-04T19:44:31.821Z,12.65
2023-01-04T19:48:35.171Z,12.49
2023-01-04T19:52:39.185Z,12.39
2023-01-04T19:56:43.665Z,12.40
2023-01-04T20:00:54.319Z,12.40
2023-01-04T20:05:02.334Z,12.49
2023-01-04T20:09:05.502Z,12.43
2023-01-04T20:13:10.010Z,12.40
2023-01-04T20:17:13.164Z,12.34
2023-01-04T20:21:16.342Z,12.33
2023-01-04T20:25:19.524Z,12.38
2023-01-04T20:29:24.012Z,12.42
2023-01-04T20:33:27.092Z,12.47
2023-01-04T20:37:30.313Z,12.42
2023-01-04T20:41:33.600Z,12.38
2023-01-04T20:45:42.411Z,12.33
2023-01-04T20:49:47.598Z,12.30
2023-01-04T20:53:51.655Z,12.27
2023-01-04T20:57:54.774Z,12.25
2023-01-04T21:01:59.377Z,12.21
2023-01-04T21:06:04.175Z,12.26
2023-01-04T21:10:07.583Z,12.21
2023-01-04T21:14:12.011Z,12.26
2023-01-04T21:18:16.684Z,12.28
2023-01-04T21:22:22.390Z,12.33
2023-01-04T21:26:25.677Z,12.32
2023-01-04T21:30:28.834Z,12.33
2023-01-04T21:34:33.623Z,12.36
2023-01-04T21:38:36.753Z,12.35
2023-01-04T21:42:40.099Z,12.41
2023-01-04T21:46:43.249Z,12.46
2023-01-04T21:50:47.728Z,12.43
2023-01-04T21:54:51.912Z,12.42
2023-01-04T21:58:55.045Z,12.35
2023-01-04T22:02:58.240Z,12.34
2023-01-04T22:07:02.782Z,12.35
2023-01-04T22:11:07.784Z,12.34
2023-01-04T22:15:11.737Z,12.33
2023-01-04T22:19:15.574Z,12.28
2023-01-04T22:23:20.170Z,12.17
2023-01-04T22:27:23.232Z,12.18
2023-01-04T22:31:26.487Z,12.19
2023-01-04T22:35:29.614Z,12.17
2023-01-04T22:39:34.053Z,12.20
2023-01-04T22:43:37.807Z,12.23
2023-01-04T22:47:41.188Z,12.18
2023-01-04T22:51:44.465Z,12.24
2023-01-04T23:00:13.243Z,12.24
2023-01-04T23:04:18.532Z,12.26
2023-01-04T23:08:21.622Z,12.37
2023-01-04T23:12:26.379Z,12.31
2023-01-04T23:16:32.983Z,12.32
2023-01-04T23:20:36.731Z,12.24
2023-01-04T23:24:39.862Z,12.23
2023-01-04T23:28:45.159Z,12.22
2023-01-04T23:32:48.293Z,12.24
2023-01-04T23:36:51.364Z,12.20
2023-01-04T23:40:54.432Z,12.19
2023-01-04T23:44:58.847Z,12.15
2023-01-04T23:49:02.008Z,12.15
2023-01-04T23:53:05.145Z,12.11
2023-01-04T23:57:08.391Z,12.11
